sensor_id;sensor_type;location;lat;lon;timestamp;P1;durP1;ratioP1;P2;durP2;ratioP2
76610;SDS011;65503;48.534;9.062;2023-09-19T00:00:35;5.40;;;1.95;;
76610;SDS011;65503;48.534;9.062;2023-09-19T00:03:02;3.42;;;1.20;;
76610;SDS011;65503;48.534;9.062;2023-09-19T00:05:30;3.80;;;1.20;;
76610;SDS011;65503;48.534;9.062;2023-09-19T00:08:01;3.42;;;1.15;;
76610;SDS011;65503;48.534;9.062;2023-09-19T00:10:31;5.68;;;1.55;;
76610;SDS011;65503;48.534;9.062;2023-09-19T00:13:02;4.05;;;1.50;;
76610;SDS011;65503;48.534;9.062;2023-09-19T00:15:37;4.13;;;1.30;;
76610;SDS011;65503;48.534;9.062;2023-09-19T00:18:06;3.03;;;1.23;;
76610;SDS011;65503;48.534;9.062;2023-09-19T00:20:35;2.80;;;1.17;;
76610;SDS011;65503;48.534;9.062;2023-09-19T00:23:02;4.18;;;1.42;;
76610;SDS011;65503;48.534;9.062;2023-09-19T00:25:30;2.05;;;1.13;;
76610;SDS011;65503;48.534;9.062;2023-09-19T00:27:58;3.75;;;1.40;;
76610;SDS011;65503;48.534;9.062;2023-09-19T00:30:25;1.23;;;0.85;;
76610;SDS011;65503;48.534;9.062;2023-09-19T00:32:52;4.57;;;1.10;;
76610;SDS011;65503;48.534;9.062;2023-09-19T00:37:45;6.85;;;1.10;;
76610;SDS011;65503;48.534;9.062;2023-09-19T00:40:12;2.85;;;1.10;;
76610;SDS011;65503;48.534;9.062;2023-09-19T00:42:39;3.55;;;0.93;;
76610;SDS011;65503;48.534;9.062;2023-09-19T00:45:07;2.63;;;1.00;;
76610;SDS011;65503;48.534;9.062;2023-09-19T00:47:38;2.95;;;1.00;;
76610;SDS011;65503;48.534;9.062;2023-09-19T00:50:07;3.45;;;1.00;;
76610;SDS011;65503;48.534;9.062;2023-09-19T00:52:34;2.42;;;1.40;;
76610;SDS011;65503;48.534;9.062;2023-09-19T00:55:05;3.10;;;1.00;;
76610;SDS011;65503;48.534;9.062;2023-09-19T00:57:33;1.90;;;1.00;;
76610;SDS011;65503;48.534;9.062;2023-09-19T01:00:01;3.63;;;0.80;;
76610;SDS011;65503;48.534;9.062;2023-09-19T01:02:33;1.90;;;0.98;;
76610;SDS011;65503;48.534;9.062;2023-09-19T01:05:00;2.78;;;0.90;;
76610;SDS011;65503;48.534;9.062;2023-09-19T01:07:30;1.45;;;0.82;;
76610;SDS011;65503;48.534;9.062;2023-09-19T01:09:58;3.50;;;1.08;;
76610;SDS011;65503;48.534;9.062;2023-09-19T01:12:30;2.67;;;1.00;;
76610;SDS011;65503;48.534;9.062;2023-09-19T01:15:12;1.60;;;0.88;;
76610;SDS011;65503;48.534;9.062;2023-09-19T01:18:11;2.03;;;0.90;;
76610;SDS011;65503;48.534;9.062;2023-09-19T01:23:23;0.80;;;0.80;;
76610;SDS011;65503;48.534;9.062;2023-09-19T01:31:21;6.35;;;1.27;;
76610;SDS011;65503;48.534;9.062;2023-09-19T01:33:57;3.72;;;1.17;;
76610;SDS011;65503;48.534;9.062;2023-09-19T01:36:28;2.42;;;1.00;;
76610;SDS011;65503;48.534;9.062;2023-09-19T01:38:56;2.08;;;1.00;;
76610;SDS011;65503;48.534;9.062;2023-09-19T01:42:09;2.50;;;1.10;;
76610;SDS011;65503;48.534;9.062;2023-09-19T01:47:32;5.28;;;1.30;;
76610;SDS011;65503;48.534;9.062;2023-09-19T01:50:04;4.35;;;1.20;;
76610;SDS011;65503;48.534;9.062;2023-09-19T01:52:35;3.83;;;1.20;;
76610;SDS011;65503;48.534;9.062;2023-09-19T01:55:06;2.30;;;1.20;;
76610;SDS011;65503;48.534;9.062;2023-09-19T01:57:40;2.30;;;1.00;;
76610;SDS011;65503;48.534;9.062;2023-09-19T02:00:12;1.85;;;0.98;;
76610;SDS011;65503;48.534;9.062;2023-09-19T02:02:42;1.88;;;1.05;;
76610;SDS011;65503;48.534;9.062;2023-09-19T02:05:11;1.45;;;0.90;;
76610;SDS011;65503;48.534;9.062;2023-09-19T02:07:38;4.15;;;1.50;;
76610;SDS011;65503;48.534;9.062;2023-09-19T02:10:06;3.17;;;1.13;;
76610;SDS011;65503;48.534;9.062;2023-09-19T02:12:33;3.78;;;1.30;;
76610;SDS011;65503;48.534;9.062;2023-09-19T02:15:02;3.30;;;1.33;;
76610;SDS011;65503;48.534;9.062;2023-09-19T02:17:29;2.55;;;1.40;;
76610;SDS011;65503;48.534;9.062;2023-09-19T02:19:57;2.75;;;1.35;;
76610;SDS011;65503;48.534;9.062;2023-09-19T02:22:27;5.43;;;1.40;;
76610;SDS011;65503;48.534;9.062;2023-09-19T02:24:54;3.15;;;1.17;;
76610;SDS011;65503;48.534;9.062;2023-09-19T02:27:20;2.70;;;1.23;;
76610;SDS011;65503;48.534;9.062;2023-09-19T02:29:47;4.03;;;1.52;;
76610;SDS011;65503;48.534;9.062;2023-09-19T02:32:15;3.33;;;1.38;;
76610;SDS011;65503;48.534;9.062;2023-09-19T02:34:44;4.38;;;1.70;;
76610;SDS011;65503;48.534;9.062;2023-09-19T02:37:11;3.63;;;1.42;;
76610;SDS011;65503;48.534;9.062;2023-09-19T02:39:39;4.53;;;1.70;;
76610;SDS011;65503;48.534;9.062;2023-09-19T02:42:06;3.30;;;1.48;;
76610;SDS011;65503;48.534;9.062;2023-09-19T02:44:33;3.25;;;1.48;;
76610;SDS011;65503;48.534;9.062;2023-09-19T02:47:00;2.97;;;1.40;;
76610;SDS011;65503;48.534;9.062;2023-09-19T02:49:26;3.55;;;1.60;;
76610;SDS011;65503;48.534;9.062;2023-09-19T02:51:53;3.90;;;1.38;;
76610;SDS011;65503;48.534;9.062;2023-09-19T02:54:19;3.17;;;1.50;;
76610;SDS011;65503;48.534;9.062;2023-09-19T02:56:46;3.50;;;1.60;;
76610;SDS011;65503;48.534;9.062;2023-09-19T02:59:13;3.13;;;1.38;;
76610;SDS011;65503;48.534;9.062;2023-09-19T03:04:09;4.57;;;1.25;;
76610;SDS011;65503;48.534;9.062;2023-09-19T03:06:37;3.88;;;1.40;;
76610;SDS011;65503;48.534;9.062;2023-09-19T03:09:05;2.90;;;1.20;;
76610;SDS011;65503;48.534;9.062;2023-09-19T03:11:38;1.92;;;1.25;;
76610;SDS011;65503;48.534;9.062;2023-09-19T03:14:06;3.30;;;1.52;;
76610;SDS011;65503;48.534;9.062;2023-09-19T03:16:33;3.60;;;1.30;;
76610;SDS011;65503;48.534;9.062;2023-09-19T03:18:59;3.35;;;1.20;;
76610;SDS011;65503;48.534;9.062;2023-09-19T03:21:26;3.50;;;1.60;;
76610;SDS011;65503;48.534;9.062;2023-09-19T03:23:52;2.10;;;1.20;;
76610;SDS011;65503;48.534;9.062;2023-09-19T03:26:19;2.60;;;1.40;;
76610;SDS011;65503;48.534;9.062;2023-09-19T03:28:45;6.32;;;1.50;;
76610;SDS011;65503;48.534;9.062;2023-09-19T03:33:39;3.53;;;1.30;;
76610;SDS011;65503;48.534;9.062;2023-09-19T03:36:07;4.28;;;1.40;;
76610;SDS011;65503;48.534;9.062;2023-09-19T03:38:33;4.00;;;1.48;;
76610;SDS011;65503;48.534;9.062;2023-09-19T03:41:01;5.57;;;1.80;;
76610;SDS011;65503;48.534;9.062;2023-09-19T03:43:28;4.07;;;1.33;;
76610;SDS011;65503;48.534;9.062;2023-09-19T03:45:55;3.58;;;1.30;;
76610;SDS011;65503;48.534;9.062;2023-09-19T03:48:21;3.33;;;1.38;;
76610;SDS011;65503;48.534;9.062;2023-09-19T03:53:16;2.50;;;1.38;;
76610;SDS011;65503;48.534;9.062;2023-09-19T03:55:44;4.70;;;1.77;;
76610;SDS011;65503;48.534;9.062;2023-09-19T03:58:12;3.75;;;1.80;;
76610;SDS011;65503;48.534;9.062;2023-09-19T04:00:39;3.17;;;1.70;;
76610;SDS011;65503;48.534;9.062;2023-09-19T04:03:05;3.15;;;1.73;;
76610;SDS011;65503;48.534;9.062;2023-09-19T04:08:00;3.88;;;1.80;;
76610;SDS011;65503;48.534;9.062;2023-09-19T04:10:26;3.78;;;1.85;;
76610;SDS011;65503;48.534;9.062;2023-09-19T04:12:53;9.10;;;2.22;;
76610;SDS011;65503;48.534;9.062;2023-09-19T04:15:20;6.72;;;2.20;;
76610;SDS011;65503;48.534;9.062;2023-09-19T04:17:53;5.90;;;2.22;;
76610;SDS011;65503;48.534;9.062;2023-09-19T04:20:19;7.93;;;2.22;;
76610;SDS011;65503;48.534;9.062;2023-09-19T04:22:46;4.50;;;2.35;;
76610;SDS011;65503;48.534;9.062;2023-09-19T04:25:13;4.97;;;2.30;;
76610;SDS011;65503;48.534;9.062;2023-09-19T04:27:39;5.97;;;2.40;;
76610;SDS011;65503;48.534;9.062;2023-09-19T04:30:07;5.95;;;2.00;;
76610;SDS011;65503;48.534;9.062;2023-09-19T04:32:38;3.35;;;2.03;;
76610;SDS011;65503;48.534;9.062;2023-09-19T04:35:08;5.13;;;2.20;;
76610;SDS011;65503;48.534;9.062;2023-09-19T04:37:37;6.90;;;2.30;;
76610;SDS011;65503;48.534;9.062;2023-09-19T04:40:06;5.72;;;2.22;;
76610;SDS011;65503;48.534;9.062;2023-09-19T04:42:39;4.97;;;2.15;;
76610;SDS011;65503;48.534;9.062;2023-09-19T04:45:06;3.75;;;2.00;;
76610;SDS011;65503;48.534;9.062;2023-09-19T04:47:38;7.30;;;2.33;;
76610;SDS011;65503;48.534;9.062;2023-09-19T04:50:09;6.38;;;2.28;;
76610;SDS011;65503;48.534;9.062;2023-09-19T04:52:43;6.43;;;2.22;;
76610;SDS011;65503;48.534;9.062;2023-09-19T04:57:43;6.75;;;2.10;;
76610;SDS011;65503;48.534;9.062;2023-09-19T05:00:13;4.43;;;2.15;;
76610;SDS011;65503;48.534;9.062;2023-09-19T05:02:41;9.25;;;2.55;;
76610;SDS011;65503;48.534;9.062;2023-09-19T05:07:41;5.63;;;2.10;;
76610;SDS011;65503;48.534;9.062;2023-09-19T05:10:09;5.95;;;2.50;;
76610;SDS011;65503;48.534;9.062;2023-09-19T05:15:03;4.85;;;2.50;;
76610;SDS011;65503;48.534;9.062;2023-09-19T05:17:31;5.03;;;2.40;;
76610;SDS011;65503;48.534;9.062;2023-09-19T05:19:57;5.10;;;2.13;;
76610;SDS011;65503;48.534;9.062;2023-09-19T05:22:42;7.18;;;2.20;;
76610;SDS011;65503;48.534;9.062;2023-09-19T05:25:09;5.53;;;2.60;;
76610;SDS011;65503;48.534;9.062;2023-09-19T05:27:36;5.97;;;2.40;;
76610;SDS011;65503;48.534;9.062;2023-09-19T05:30:03;4.82;;;2.00;;
76610;SDS011;65503;48.534;9.062;2023-09-19T05:32:30;7.75;;;2.10;;
76610;SDS011;65503;48.534;9.062;2023-09-19T05:34:57;4.20;;;1.80;;
76610;SDS011;65503;48.534;9.062;2023-09-19T05:37:24;4.80;;;1.75;;
76610;SDS011;65503;48.534;9.062;2023-09-19T05:39:52;4.72;;;1.80;;
76610;SDS011;65503;48.534;9.062;2023-09-19T05:42:21;4.22;;;1.50;;
76610;SDS011;65503;48.534;9.062;2023-09-19T05:44:48;2.58;;;1.50;;
76610;SDS011;65503;48.534;9.062;2023-09-19T05:47:15;2.88;;;1.25;;
76610;SDS011;65503;48.534;9.062;2023-09-19T05:49:41;2.67;;;1.42;;
76610;SDS011;65503;48.534;9.062;2023-09-19T05:52:08;6.10;;;1.75;;
76610;SDS011;65503;48.534;9.062;2023-09-19T05:54:34;4.35;;;1.80;;
76610;SDS011;65503;48.534;9.062;2023-09-19T05:57:01;3.53;;;1.92;;
76610;SDS011;65503;48.534;9.062;2023-09-19T05:59:28;2.75;;;1.33;;
76610;SDS011;65503;48.534;9.062;2023-09-19T06:01:54;2.40;;;1.13;;
76610;SDS011;65503;48.534;9.062;2023-09-19T06:04:21;5.07;;;1.40;;
76610;SDS011;65503;48.534;9.062;2023-09-19T06:06:48;2.75;;;1.20;;
76610;SDS011;65503;48.534;9.062;2023-09-19T06:09:14;2.00;;;1.13;;
76610;SDS011;65503;48.534;9.062;2023-09-19T06:11:41;3.67;;;1.50;;
76610;SDS011;65503;48.534;9.062;2023-09-19T06:14:08;3.03;;;1.60;;
76610;SDS011;65503;48.534;9.062;2023-09-19T06:16:36;2.00;;;1.25;;
76610;SDS011;65503;48.534;9.062;2023-09-19T06:19:04;2.83;;;1.20;;
76610;SDS011;65503;48.534;9.062;2023-09-19T06:21:35;4.97;;;1.30;;
76610;SDS011;65503;48.534;9.062;2023-09-19T06:24:02;2.17;;;1.20;;
76610;SDS011;65503;48.534;9.062;2023-09-19T06:26:29;3.10;;;1.65;;
76610;SDS011;65503;48.534;9.062;2023-09-19T06:28:57;2.63;;;1.40;;
76610;SDS011;65503;48.534;9.062;2023-09-19T06:31:23;3.90;;;1.35;;
76610;SDS011;65503;48.534;9.062;2023-09-19T06:33:52;2.72;;;1.20;;
76610;SDS011;65503;48.534;9.062;2023-09-19T06:36:19;3.33;;;1.40;;
76610;SDS011;65503;48.534;9.062;2023-09-19T06:38:46;5.10;;;1.45;;
76610;SDS011;65503;48.534;9.062;2023-09-19T06:41:13;5.22;;;1.38;;
76610;SDS011;65503;48.534;9.062;2023-09-19T06:43:42;3.42;;;1.20;;
76610;SDS011;65503;48.534;9.062;2023-09-19T06:46:09;2.08;;;1.05;;
76610;SDS011;65503;48.534;9.062;2023-09-19T06:48:36;2.35;;;1.20;;
76610;SDS011;65503;48.534;9.062;2023-09-19T06:51:02;2.67;;;1.27;;
76610;SDS011;65503;48.534;9.062;2023-09-19T06:53:31;1.50;;;0.90;;
76610;SDS011;65503;48.534;9.062;2023-09-19T06:55:58;5.10;;;0.98;;
76610;SDS011;65503;48.534;9.062;2023-09-19T06:58:25;2.92;;;1.00;;
76610;SDS011;65503;48.534;9.062;2023-09-19T07:00:52;2.63;;;1.00;;
76610;SDS011;65503;48.534;9.062;2023-09-19T07:03:19;2.53;;;1.13;;
76610;SDS011;65503;48.534;9.062;2023-09-19T07:05:48;2.58;;;0.80;;
76610;SDS011;65503;48.534;9.062;2023-09-19T07:08:14;1.67;;;0.90;;
76610;SDS011;65503;48.534;9.062;2023-09-19T07:10:41;4.85;;;1.30;;
76610;SDS011;65503;48.534;9.062;2023-09-19T07:13:15;3.72;;;1.00;;
76610;SDS011;65503;48.534;9.062;2023-09-19T07:15:43;1.55;;;0.85;;
76610;SDS011;65503;48.534;9.062;2023-09-19T07:18:14;2.33;;;1.00;;
76610;SDS011;65503;48.534;9.062;2023-09-19T07:20:43;2.50;;;0.90;;
76610;SDS011;65503;48.534;9.062;2023-09-19T07:23:19;4.50;;;0.90;;
76610;SDS011;65503;48.534;9.062;2023-09-19T07:25:48;2.00;;;0.90;;
76610;SDS011;65503;48.534;9.062;2023-09-19T07:28:15;3.60;;;1.27;;
76610;SDS011;65503;48.534;9.062;2023-09-19T07:30:41;4.03;;;1.20;;
76610;SDS011;65503;48.534;9.062;2023-09-19T07:33:08;1.85;;;1.10;;
76610;SDS011;65503;48.534;9.062;2023-09-19T07:35:37;2.67;;;1.08;;
76610;SDS011;65503;48.534;9.062;2023-09-19T07:38:07;3.25;;;1.00;;
76610;SDS011;65503;48.534;9.062;2023-09-19T07:40:37;3.35;;;1.00;;
76610;SDS011;65503;48.534;9.062;2023-09-19T07:45:31;1.85;;;1.02;;
76610;SDS011;65503;48.534;9.062;2023-09-19T07:47:58;1.30;;;0.80;;
76610;SDS011;65503;48.534;9.062;2023-09-19T07:50:30;2.42;;;1.30;;
76610;SDS011;65503;48.534;9.062;2023-09-19T07:52:59;1.42;;;0.70;;
76610;SDS011;65503;48.534;9.062;2023-09-19T07:55:26;1.88;;;1.00;;
76610;SDS011;65503;48.534;9.062;2023-09-19T07:57:52;3.17;;;0.90;;
76610;SDS011;65503;48.534;9.062;2023-09-19T08:00:19;3.08;;;1.10;;
76610;SDS011;65503;48.534;9.062;2023-09-19T08:02:46;1.67;;;0.93;;
76610;SDS011;65503;48.534;9.062;2023-09-19T08:05:23;2.15;;;0.95;;
76610;SDS011;65503;48.534;9.062;2023-09-19T08:07:51;4.38;;;1.20;;
76610;SDS011;65503;48.534;9.062;2023-09-19T08:10:19;2.25;;;1.00;;
76610;SDS011;65503;48.534;9.062;2023-09-19T08:12:46;5.15;;;1.10;;
76610;SDS011;65503;48.534;9.062;2023-09-19T08:15:19;1.83;;;0.90;;
76610;SDS011;65503;48.534;9.062;2023-09-19T08:17:46;2.63;;;0.90;;
76610;SDS011;65503;48.534;9.062;2023-09-19T08:20:14;1.38;;;0.85;;
76610;SDS011;65503;48.534;9.062;2023-09-19T08:22:49;1.55;;;0.80;;
76610;SDS011;65503;48.534;9.062;2023-09-19T08:25:19;2.28;;;0.93;;
76610;SDS011;65503;48.534;9.062;2023-09-19T08:27:47;3.00;;;1.02;;
76610;SDS011;65503;48.534;9.062;2023-09-19T08:30:16;3.83;;;0.98;;
76610;SDS011;65503;48.534;9.062;2023-09-19T08:32:44;1.27;;;0.82;;
76610;SDS011;65503;48.534;9.062;2023-09-19T08:35:12;1.70;;;0.90;;
76610;SDS011;65503;48.534;9.062;2023-09-19T08:37:41;4.03;;;1.10;;
76610;SDS011;65503;48.534;9.062;2023-09-19T08:40:08;3.88;;;1.20;;
76610;SDS011;65503;48.534;9.062;2023-09-19T08:42:51;3.15;;;1.20;;
76610;SDS011;65503;48.534;9.062;2023-09-19T08:45:20;2.95;;;1.13;;
76610;SDS011;65503;48.534;9.062;2023-09-19T08:48:11;4.95;;;1.90;;
76610;SDS011;65503;48.534;9.062;2023-09-19T08:50:48;2.65;;;1.00;;
76610;SDS011;65503;48.534;9.062;2023-09-19T08:53:16;3.30;;;1.00;;
76610;SDS011;65503;48.534;9.062;2023-09-19T08:55:53;4.13;;;1.10;;
76610;SDS011;65503;48.534;9.062;2023-09-19T08:58:25;1.30;;;0.93;;
76610;SDS011;65503;48.534;9.062;2023-09-19T09:00:56;1.98;;;0.95;;
76610;SDS011;65503;48.534;9.062;2023-09-19T09:03:24;4.63;;;1.00;;
76610;SDS011;65503;48.534;9.062;2023-09-19T09:05:52;4.28;;;1.10;;
76610;SDS011;65503;48.534;9.062;2023-09-19T09:08:19;3.97;;;1.20;;
76610;SDS011;65503;48.534;9.062;2023-09-19T09:10:48;4.40;;;1.20;;
76610;SDS011;65503;48.534;9.062;2023-09-19T09:13:15;3.90;;;1.10;;
76610;SDS011;65503;48.534;9.062;2023-09-19T09:15:43;5.63;;;1.20;;
76610;SDS011;65503;48.534;9.062;2023-09-19T09:18:11;2.80;;;0.90;;
76610;SDS011;65503;48.534;9.062;2023-09-19T09:20:38;1.40;;;1.00;;
76610;SDS011;65503;48.534;9.062;2023-09-19T09:23:04;8.07;;;1.45;;
76610;SDS011;65503;48.534;9.062;2023-09-19T09:28:30;3.78;;;1.30;;
76610;SDS011;65503;48.534;9.062;2023-09-19T09:30:58;2.78;;;1.30;;
76610;SDS011;65503;48.534;9.062;2023-09-19T09:33:25;2.00;;;1.00;;
76610;SDS011;65503;48.534;9.062;2023-09-19T09:38:29;3.63;;;1.50;;
76610;SDS011;65503;48.534;9.062;2023-09-19T09:41:09;3.45;;;1.30;;
76610;SDS011;65503;48.534;9.062;2023-09-19T09:43:38;1.77;;;1.10;;
76610;SDS011;65503;48.534;9.062;2023-09-19T09:49:02;2.53;;;1.00;;
76610;SDS011;65503;48.534;9.062;2023-09-19T09:51:49;2.33;;;0.90;;
76610;SDS011;65503;48.534;9.062;2023-09-19T09:54:59;2.63;;;1.10;;
76610;SDS011;65503;48.534;9.062;2023-09-19T09:57:32;4.07;;;1.10;;
76610;SDS011;65503;48.534;9.062;2023-09-19T10:00:00;3.55;;;1.20;;
76610;SDS011;65503;48.534;9.062;2023-09-19T10:02:39;2.20;;;1.00;;
76610;SDS011;65503;48.534;9.062;2023-09-19T10:05:17;3.25;;;1.00;;
76610;SDS011;65503;48.534;9.062;2023-09-19T10:07:55;1.95;;;1.00;;
76610;SDS011;65503;48.534;9.062;2023-09-19T10:13:25;2.40;;;1.08;;
76610;SDS011;65503;48.534;9.062;2023-09-19T10:15:55;3.40;;;1.13;;
76610;SDS011;65503;48.534;9.062;2023-09-19T10:18:25;3.78;;;1.20;;
76610;SDS011;65503;48.534;9.062;2023-09-19T10:20:55;3.78;;;1.10;;
76610;SDS011;65503;48.534;9.062;2023-09-19T10:23:23;3.78;;;1.10;;
76610;SDS011;65503;48.534;9.062;2023-09-19T10:25:52;3.00;;;1.05;;
76610;SDS011;65503;48.534;9.062;2023-09-19T10:30:50;3.40;;;1.20;;
76610;SDS011;65503;48.534;9.062;2023-09-19T10:33:19;2.55;;;1.10;;
76610;SDS011;65503;48.534;9.062;2023-09-19T10:35:49;2.15;;;1.10;;
76610;SDS011;65503;48.534;9.062;2023-09-19T10:38:23;2.08;;;0.90;;
76610;SDS011;65503;48.534;9.062;2023-09-19T10:40:52;3.90;;;1.35;;
76610;SDS011;65503;48.534;9.062;2023-09-19T10:43:20;2.75;;;1.00;;
76610;SDS011;65503;48.534;9.062;2023-09-19T10:45:51;2.72;;;1.10;;
76610;SDS011;65503;48.534;9.062;2023-09-19T10:48:21;5.30;;;1.13;;
76610;SDS011;65503;48.534;9.062;2023-09-19T10:51:02;7.63;;;1.15;;
76610;SDS011;65503;48.534;9.062;2023-09-19T10:53:41;2.40;;;1.20;;
76610;SDS011;65503;48.534;9.062;2023-09-19T10:56:11;3.05;;;1.10;;
76610;SDS011;65503;48.534;9.062;2023-09-19T10:58:45;4.22;;;1.10;;
76610;SDS011;65503;48.534;9.062;2023-09-19T11:01:12;2.67;;;1.25;;
76610;SDS011;65503;48.534;9.062;2023-09-19T11:03:41;2.03;;;1.00;;
76610;SDS011;65503;48.534;9.062;2023-09-19T11:08:55;3.78;;;1.10;;
76610;SDS011;65503;48.534;9.062;2023-09-19T11:17:29;5.88;;;1.23;;
76610;SDS011;65503;48.534;9.062;2023-09-19T11:30:32;2.58;;;1.10;;
76610;SDS011;65503;48.534;9.062;2023-09-19T11:33:16;2.60;;;1.02;;
76610;SDS011;65503;48.534;9.062;2023-09-19T11:36:00;1.90;;;1.10;;
76610;SDS011;65503;48.534;9.062;2023-09-19T11:46:27;2.33;;;1.20;;
76610;SDS011;65503;48.534;9.062;2023-09-19T11:48:54;2.92;;;1.13;;
76610;SDS011;65503;48.534;9.062;2023-09-19T11:51:37;2.65;;;0.80;;
76610;SDS011;65503;48.534;9.062;2023-09-19T11:54:10;1.10;;;0.82;;
76610;SDS011;65503;48.534;9.062;2023-09-19T11:56:46;2.53;;;0.98;;
76610;SDS011;65503;48.534;9.062;2023-09-19T11:59:23;4.63;;;1.20;;
76610;SDS011;65503;48.534;9.062;2023-09-19T12:01:54;1.65;;;1.05;;
76610;SDS011;65503;48.534;9.062;2023-09-19T12:04:33;3.65;;;1.50;;
76610;SDS011;65503;48.534;9.062;2023-09-19T12:07:09;1.65;;;0.90;;
76610;SDS011;65503;48.534;9.062;2023-09-19T12:10:03;1.88;;;0.90;;
76610;SDS011;65503;48.534;9.062;2023-09-19T12:12:32;3.30;;;1.40;;
76610;SDS011;65503;48.534;9.062;2023-09-19T12:15:01;1.70;;;1.02;;
76610;SDS011;65503;48.534;9.062;2023-09-19T12:17:36;1.63;;;1.00;;
76610;SDS011;65503;48.534;9.062;2023-09-19T12:20:03;2.28;;;1.13;;
76610;SDS011;65503;48.534;9.062;2023-09-19T12:22:42;1.77;;;0.85;;
76610;SDS011;65503;48.534;9.062;2023-09-19T12:25:10;3.22;;;1.20;;
76610;SDS011;65503;48.534;9.062;2023-09-19T12:27:44;2.55;;;1.05;;
76610;SDS011;65503;48.534;9.062;2023-09-19T12:30:13;5.43;;;1.33;;
76610;SDS011;65503;48.534;9.062;2023-09-19T12:32:53;2.50;;;1.10;;
76610;SDS011;65503;48.534;9.062;2023-09-19T12:35:29;2.70;;;1.05;;
76610;SDS011;65503;48.534;9.062;2023-09-19T12:38:01;2.10;;;1.00;;
76610;SDS011;65503;48.534;9.062;2023-09-19T12:40:29;2.53;;;1.17;;
76610;SDS011;65503;48.534;9.062;2023-09-19T12:42:59;3.85;;;1.00;;
76610;SDS011;65503;48.534;9.062;2023-09-19T12:45:29;2.15;;;1.00;;
76610;SDS011;65503;48.534;9.062;2023-09-19T12:53:39;3.03;;;0.95;;
76610;SDS011;65503;48.534;9.062;2023-09-19T12:56:09;1.65;;;0.90;;
76610;SDS011;65503;48.534;9.062;2023-09-19T13:01:22;3.58;;;1.25;;
76610;SDS011;65503;48.534;9.062;2023-09-19T13:04:13;2.03;;;1.10;;
76610;SDS011;65503;48.534;9.062;2023-09-19T13:06:47;2.72;;;0.98;;
76610;SDS011;65503;48.534;9.062;2023-09-19T13:09:16;2.85;;;1.13;;
76610;SDS011;65503;48.534;9.062;2023-09-19T13:11:43;1.65;;;0.90;;
76610;SDS011;65503;48.534;9.062;2023-09-19T13:14:13;1.80;;;0.90;;
76610;SDS011;65503;48.534;9.062;2023-09-19T13:16:52;1.60;;;1.00;;
76610;SDS011;65503;48.534;9.062;2023-09-19T13:19:53;2.13;;;0.90;;
76610;SDS011;65503;48.534;9.062;2023-09-19T13:22:55;3.45;;;1.02;;
76610;SDS011;65503;48.534;9.062;2023-09-19T13:25:20;2.72;;;1.20;;
76610;SDS011;65503;48.534;9.062;2023-09-19T13:27:49;3.50;;;1.15;;
76610;SDS011;65503;48.534;9.062;2023-09-19T13:30:23;3.22;;;0.95;;
76610;SDS011;65503;48.534;9.062;2023-09-19T13:32:52;3.83;;;1.10;;
76610;SDS011;65503;48.534;9.062;2023-09-19T13:35:30;2.88;;;1.20;;
76610;SDS011;65503;48.534;9.062;2023-09-19T13:37:56;3.88;;;1.35;;
76610;SDS011;65503;48.534;9.062;2023-09-19T13:40:23;4.40;;;1.52;;
76610;SDS011;65503;48.534;9.062;2023-09-19T13:42:50;1.50;;;0.90;;
76610;SDS011;65503;48.534;9.062;2023-09-19T13:45:19;1.85;;;1.10;;
76610;SDS011;65503;48.534;9.062;2023-09-19T13:47:48;3.00;;;1.13;;
76610;SDS011;65503;48.534;9.062;2023-09-19T13:50:15;2.65;;;1.00;;
76610;SDS011;65503;48.534;9.062;2023-09-19T13:52:43;3.13;;;1.23;;
76610;SDS011;65503;48.534;9.062;2023-09-19T13:55:09;2.60;;;1.00;;
76610;SDS011;65503;48.534;9.062;2023-09-19T13:57:36;1.60;;;0.90;;
76610;SDS011;65503;48.534;9.062;2023-09-19T14:00:03;5.30;;;1.33;;
76610;SDS011;65503;48.534;9.062;2023-09-19T14:02:31;3.80;;;1.20;;
76610;SDS011;65503;48.534;9.062;2023-09-19T14:04:58;2.75;;;1.20;;
76610;SDS011;65503;48.534;9.062;2023-09-19T14:07:25;2.67;;;1.20;;
76610;SDS011;65503;48.534;9.062;2023-09-19T14:09:52;1.75;;;1.05;;
76610;SDS011;65503;48.534;9.062;2023-09-19T14:14:45;2.17;;;1.17;;
76610;SDS011;65503;48.534;9.062;2023-09-19T14:17:11;3.20;;;1.10;;
76610;SDS011;65503;48.534;9.062;2023-09-19T14:19:40;2.72;;;0.90;;
76610;SDS011;65503;48.534;9.062;2023-09-19T14:22:11;1.55;;;0.90;;
76610;SDS011;65503;48.534;9.062;2023-09-19T14:24:40;3.45;;;1.10;;
76610;SDS011;65503;48.534;9.062;2023-09-19T14:27:07;6.15;;;1.27;;
76610;SDS011;65503;48.534;9.062;2023-09-19T14:29:35;3.58;;;1.40;;
76610;SDS011;65503;48.534;9.062;2023-09-19T14:32:02;2.10;;;1.08;;
76610;SDS011;65503;48.534;9.062;2023-09-19T14:36:55;1.23;;;0.80;;
76610;SDS011;65503;48.534;9.062;2023-09-19T14:39:22;2.28;;;0.98;;
76610;SDS011;65503;48.534;9.062;2023-09-19T14:41:49;2.40;;;1.30;;
76610;SDS011;65503;48.534;9.062;2023-09-19T14:44:16;3.63;;;1.40;;
76610;SDS011;65503;48.534;9.062;2023-09-19T14:46:43;2.08;;;1.05;;
76610;SDS011;65503;48.534;9.062;2023-09-19T14:49:11;3.72;;;1.13;;
76610;SDS011;65503;48.534;9.062;2023-09-19T14:54:05;2.30;;;1.10;;
76610;SDS011;65503;48.534;9.062;2023-09-19T14:56:34;2.53;;;1.00;;
76610;SDS011;65503;48.534;9.062;2023-09-19T14:59:00;2.80;;;1.25;;
76610;SDS011;65503;48.534;9.062;2023-09-19T15:01:27;6.53;;;1.38;;
76610;SDS011;65503;48.534;9.062;2023-09-19T15:03:54;1.40;;;0.90;;
76610;SDS011;65503;48.534;9.062;2023-09-19T15:06:21;1.83;;;1.00;;
76610;SDS011;65503;48.534;9.062;2023-09-19T15:08:48;2.35;;;1.10;;
76610;SDS011;65503;48.534;9.062;2023-09-19T15:11:17;2.83;;;1.00;;
76610;SDS011;65503;48.534;9.062;2023-09-19T15:13:44;2.10;;;1.13;;
76610;SDS011;65503;48.534;9.062;2023-09-19T15:16:13;2.42;;;1.05;;
76610;SDS011;65503;48.534;9.062;2023-09-19T15:18:41;2.20;;;0.95;;
76610;SDS011;65503;48.534;9.062;2023-09-19T15:21:12;3.05;;;1.10;;
76610;SDS011;65503;48.534;9.062;2023-09-19T15:23:39;4.60;;;1.20;;
76610;SDS011;65503;48.534;9.062;2023-09-19T15:26:08;4.43;;;1.20;;
76610;SDS011;65503;48.534;9.062;2023-09-19T15:28:37;1.90;;;1.10;;
76610;SDS011;65503;48.534;9.062;2023-09-19T15:31:05;2.30;;;1.10;;
76610;SDS011;65503;48.534;9.062;2023-09-19T15:33:39;2.85;;;1.17;;
76610;SDS011;65503;48.534;9.062;2023-09-19T15:36:06;3.67;;;1.27;;
76610;SDS011;65503;48.534;9.062;2023-09-19T15:41:24;2.85;;;1.20;;
76610;SDS011;65503;48.534;9.062;2023-09-19T15:43:51;2.95;;;1.20;;
76610;SDS011;65503;48.534;9.062;2023-09-19T15:46:17;2.05;;;1.00;;
76610;SDS011;65503;48.534;9.062;2023-09-19T15:48:44;2.60;;;1.17;;
76610;SDS011;65503;48.534;9.062;2023-09-19T15:51:12;2.50;;;1.10;;
76610;SDS011;65503;48.534;9.062;2023-09-19T15:56:16;1.77;;;1.00;;
76610;SDS011;65503;48.534;9.062;2023-09-19T15:58:49;4.10;;;1.45;;
76610;SDS011;65503;48.534;9.062;2023-09-19T16:06:16;3.65;;;1.30;;
76610;SDS011;65503;48.534;9.062;2023-09-19T16:08:47;2.58;;;1.20;;
76610;SDS011;65503;48.534;9.062;2023-09-19T16:11:15;3.50;;;1.27;;
76610;SDS011;65503;48.534;9.062;2023-09-19T16:13:42;2.72;;;1.20;;
76610;SDS011;65503;48.534;9.062;2023-09-19T16:16:10;2.63;;;1.02;;
76610;SDS011;65503;48.534;9.062;2023-09-19T16:18:39;4.95;;;1.20;;
76610;SDS011;65503;48.534;9.062;2023-09-19T16:23:35;2.08;;;1.17;;
76610;SDS011;65503;48.534;9.062;2023-09-19T16:28:35;2.90;;;1.33;;
76610;SDS011;65503;48.534;9.062;2023-09-19T16:31:03;2.83;;;1.10;;
76610;SDS011;65503;48.534;9.062;2023-09-19T16:33:34;3.10;;;1.20;;
76610;SDS011;65503;48.534;9.062;2023-09-19T16:36:06;4.13;;;1.48;;
76610;SDS011;65503;48.534;9.062;2023-09-19T16:38:37;1.92;;;1.17;;
76610;SDS011;65503;48.534;9.062;2023-09-19T16:41:05;2.22;;;1.10;;
76610;SDS011;65503;48.534;9.062;2023-09-19T16:43:33;3.25;;;1.20;;
76610;SDS011;65503;48.534;9.062;2023-09-19T16:48:32;3.38;;;1.40;;
76610;SDS011;65503;48.534;9.062;2023-09-19T16:51:16;3.20;;;1.30;;